Laird, Colorado
Current Conditions -  °F | °C
As of 6:35 PM on Tuesday 25 Nov 2014 (Local Time) from K2V5 Reporting Station
Overcast Overcast  
Wind Chill: 37°   Ceiling: 7000
Heat Index: 43°   Visibility: 10mi
Dew Point: 30°   Wind: 10mph
Humidity: 61%   Direction: 330°NNW
Pressure: 29.92"   Gusts: 20mph
Location:  40.1407°N, 102.218°W
Report Text: K2V5 260135Z AUTO 33009G17KT 10SM OVC070 06/M01 A2992 RMK AO2 T00601010
Loading
Personal Weather Stations






























Interactive Weather Map New forecast layout! Learn more

10-Day Weather Forecast

Advertisements
Track Severe Weather on mobile